sensor_id;sensor_type;location;lat;lon;timestamp;P1;durP1;ratioP1;P2;durP2;ratioP2
36377;SDS011;22402;42.746;23.606;2024-01-15T00:01:52;40.17;;;16.23;;
36377;SDS011;22402;42.746;23.606;2024-01-15T00:04:18;37.70;;;15.63;;
36377;SDS011;22402;42.746;23.606;2024-01-15T00:06:43;43.40;;;17.57;;
36377;SDS011;22402;42.746;23.606;2024-01-15T00:09:09;37.27;;;16.40;;
36377;SDS011;22402;42.746;23.606;2024-01-15T00:11:35;53.93;;;17.37;;
36377;SDS011;22402;42.746;23.606;2024-01-15T00:14:00;41.87;;;17.10;;
36377;SDS011;22402;42.746;23.606;2024-01-15T00:16:25;40.30;;;16.03;;
36377;SDS011;22402;42.746;23.606;2024-01-15T00:18:51;36.90;;;15.77;;
36377;SDS011;22402;42.746;23.606;2024-01-15T00:21:16;46.27;;;16.50;;
36377;SDS011;22402;42.746;23.606;2024-01-15T00:23:45;45.73;;;19.20;;
36377;SDS011;22402;42.746;23.606;2024-01-15T00:26:10;38.70;;;16.93;;
36377;SDS011;22402;42.746;23.606;2024-01-15T00:28:36;44.53;;;18.23;;
36377;SDS011;22402;42.746;23.606;2024-01-15T00:31:02;58.17;;;19.17;;
36377;SDS011;22402;42.746;23.606;2024-01-15T00:33:29;53.03;;;20.30;;
36377;SDS011;22402;42.746;23.606;2024-01-15T00:35:54;39.43;;;16.83;;
36377;SDS011;22402;42.746;23.606;2024-01-15T00:38:20;42.03;;;17.80;;
36377;SDS011;22402;42.746;23.606;2024-01-15T00:40:45;38.00;;;15.80;;
36377;SDS011;22402;42.746;23.606;2024-01-15T00:43:11;52.00;;;18.53;;
36377;SDS011;22402;42.746;23.606;2024-01-15T00:45:36;42.33;;;17.80;;
36377;SDS011;22402;42.746;23.606;2024-01-15T00:48:02;44.67;;;18.03;;
36377;SDS011;22402;42.746;23.606;2024-01-15T00:50:28;40.10;;;16.10;;
36377;SDS011;22402;42.746;23.606;2024-01-15T00:52:54;47.70;;;18.03;;
36377;SDS011;22402;42.746;23.606;2024-01-15T00:55:20;49.93;;;19.30;;
36377;SDS011;22402;42.746;23.606;2024-01-15T00:57:45;40.97;;;17.93;;
36377;SDS011;22402;42.746;23.606;2024-01-15T01:00:11;56.57;;;19.83;;
36377;SDS011;22402;42.746;23.606;2024-01-15T01:02:37;38.60;;;17.03;;
36377;SDS011;22402;42.746;23.606;2024-01-15T01:05:03;41.90;;;17.10;;
36377;SDS011;22402;42.746;23.606;2024-01-15T01:07:28;40.70;;;16.00;;
36377;SDS011;22402;42.746;23.606;2024-01-15T01:09:54;44.07;;;18.03;;
36377;SDS011;22402;42.746;23.606;2024-01-15T01:12:20;46.33;;;17.40;;
36377;SDS011;22402;42.746;23.606;2024-01-15T01:14:46;33.10;;;15.73;;
36377;SDS011;22402;42.746;23.606;2024-01-15T01:17:12;35.20;;;15.87;;
36377;SDS011;22402;42.746;23.606;2024-01-15T01:19:37;43.67;;;19.17;;
36377;SDS011;22402;42.746;23.606;2024-01-15T01:22:03;44.07;;;17.40;;
36377;SDS011;22402;42.746;23.606;2024-01-15T01:24:29;41.53;;;17.07;;
36377;SDS011;22402;42.746;23.606;2024-01-15T01:26:54;40.87;;;17.33;;
36377;SDS011;22402;42.746;23.606;2024-01-15T01:29:20;41.80;;;18.17;;
36377;SDS011;22402;42.746;23.606;2024-01-15T01:31:49;37.80;;;16.50;;
36377;SDS011;22402;42.746;23.606;2024-01-15T01:34:15;39.90;;;18.53;;
36377;SDS011;22402;42.746;23.606;2024-01-15T01:36:44;33.43;;;17.40;;
36377;SDS011;22402;42.746;23.606;2024-01-15T01:39:10;43.87;;;19.40;;
36377;SDS011;22402;42.746;23.606;2024-01-15T01:41:35;41.83;;;18.00;;
36377;SDS011;22402;42.746;23.606;2024-01-15T01:44:01;45.83;;;17.90;;
36377;SDS011;22402;42.746;23.606;2024-01-15T01:46:27;48.97;;;20.77;;
36377;SDS011;22402;42.746;23.606;2024-01-15T01:48:53;42.43;;;18.20;;
36377;SDS011;22402;42.746;23.606;2024-01-15T01:51:20;41.03;;;19.17;;
36377;SDS011;22402;42.746;23.606;2024-01-15T01:53:48;41.03;;;17.90;;
36377;SDS011;22402;42.746;23.606;2024-01-15T01:56:14;42.93;;;18.77;;
36377;SDS011;22402;42.746;23.606;2024-01-15T01:58:40;37.90;;;17.30;;
36377;SDS011;22402;42.746;23.606;2024-01-15T02:01:07;35.50;;;15.33;;
36377;SDS011;22402;42.746;23.606;2024-01-15T02:03:33;38.40;;;17.63;;
36377;SDS011;22402;42.746;23.606;2024-01-15T02:05:59;46.53;;;19.53;;
36377;SDS011;22402;42.746;23.606;2024-01-15T02:08:26;40.53;;;17.77;;
36377;SDS011;22402;42.746;23.606;2024-01-15T02:10:51;44.53;;;17.93;;
36377;SDS011;22402;42.746;23.606;2024-01-15T02:13:17;41.17;;;17.63;;
36377;SDS011;22402;42.746;23.606;2024-01-15T02:15:43;42.57;;;17.10;;
36377;SDS011;22402;42.746;23.606;2024-01-15T02:18:09;41.30;;;17.10;;
36377;SDS011;22402;42.746;23.606;2024-01-15T02:20:35;49.87;;;19.90;;
36377;SDS011;22402;42.746;23.606;2024-01-15T02:25:40;44.90;;;18.13;;
36377;SDS011;22402;42.746;23.606;2024-01-15T02:28:10;38.73;;;17.07;;
36377;SDS011;22402;42.746;23.606;2024-01-15T02:30:37;46.90;;;20.20;;
36377;SDS011;22402;42.746;23.606;2024-01-15T02:33:04;43.63;;;19.20;;
36377;SDS011;22402;42.746;23.606;2024-01-15T02:35:30;40.87;;;18.70;;
36377;SDS011;22402;42.746;23.606;2024-01-15T02:37:56;41.13;;;18.50;;
36377;SDS011;22402;42.746;23.606;2024-01-15T02:40:21;44.30;;;17.53;;
36377;SDS011;22402;42.746;23.606;2024-01-15T02:42:47;38.93;;;16.63;;
36377;SDS011;22402;42.746;23.606;2024-01-15T02:45:12;46.97;;;21.33;;
36377;SDS011;22402;42.746;23.606;2024-01-15T02:47:38;43.10;;;20.43;;
36377;SDS011;22402;42.746;23.606;2024-01-15T02:50:04;49.53;;;20.60;;
36377;SDS011;22402;42.746;23.606;2024-01-15T02:52:30;41.63;;;19.10;;
36377;SDS011;22402;42.746;23.606;2024-01-15T02:54:55;42.97;;;18.87;;
36377;SDS011;22402;42.746;23.606;2024-01-15T02:57:21;61.90;;;22.13;;
36377;SDS011;22402;42.746;23.606;2024-01-15T02:59:46;40.60;;;18.57;;
36377;SDS011;22402;42.746;23.606;2024-01-15T03:02:12;50.87;;;22.10;;
36377;SDS011;22402;42.746;23.606;2024-01-15T03:04:37;73.77;;;31.80;;
36377;SDS011;22402;42.746;23.606;2024-01-15T03:07:03;74.77;;;32.13;;
36377;SDS011;22402;42.746;23.606;2024-01-15T03:09:28;66.73;;;27.60;;
36377;SDS011;22402;42.746;23.606;2024-01-15T03:11:54;55.30;;;21.70;;
36377;SDS011;22402;42.746;23.606;2024-01-15T03:14:19;53.07;;;20.17;;
36377;SDS011;22402;42.746;23.606;2024-01-15T03:16:45;49.13;;;19.53;;
36377;SDS011;22402;42.746;23.606;2024-01-15T03:19:10;33.03;;;16.97;;
36377;SDS011;22402;42.746;23.606;2024-01-15T03:21:36;33.60;;;16.87;;
36377;SDS011;22402;42.746;23.606;2024-01-15T03:24:01;36.63;;;15.60;;
36377;SDS011;22402;42.746;23.606;2024-01-15T03:26:27;35.53;;;14.43;;
36377;SDS011;22402;42.746;23.606;2024-01-15T03:28:52;31.43;;;15.47;;
36377;SDS011;22402;42.746;23.606;2024-01-15T03:31:18;35.97;;;14.80;;
36377;SDS011;22402;42.746;23.606;2024-01-15T03:33:43;33.87;;;14.50;;
36377;SDS011;22402;42.746;23.606;2024-01-15T03:36:09;34.90;;;15.93;;
36377;SDS011;22402;42.746;23.606;2024-01-15T03:38:38;37.17;;;17.33;;
36377;SDS011;22402;42.746;23.606;2024-01-15T03:41:06;33.03;;;14.53;;
36377;SDS011;22402;42.746;23.606;2024-01-15T03:43:31;37.57;;;15.73;;
36377;SDS011;22402;42.746;23.606;2024-01-15T03:45:56;31.00;;;13.53;;
36377;SDS011;22402;42.746;23.606;2024-01-15T03:48:27;33.23;;;13.97;;
36377;SDS011;22402;42.746;23.606;2024-01-15T03:50:52;35.53;;;15.73;;
36377;SDS011;22402;42.746;23.606;2024-01-15T03:53:18;40.30;;;17.47;;
36377;SDS011;22402;42.746;23.606;2024-01-15T03:55:43;46.30;;;19.00;;
36377;SDS011;22402;42.746;23.606;2024-01-15T03:58:09;33.80;;;15.47;;
36377;SDS011;22402;42.746;23.606;2024-01-15T04:00:34;39.07;;;15.70;;
36377;SDS011;22402;42.746;23.606;2024-01-15T04:03:00;28.80;;;12.67;;
36377;SDS011;22402;42.746;23.606;2024-01-15T04:05:25;37.50;;;13.47;;
36377;SDS011;22402;42.746;23.606;2024-01-15T04:07:51;39.23;;;13.80;;
36377;SDS011;22402;42.746;23.606;2024-01-15T04:10:17;32.73;;;12.80;;
36377;SDS011;22402;42.746;23.606;2024-01-15T04:12:42;35.47;;;14.13;;
36377;SDS011;22402;42.746;23.606;2024-01-15T04:15:07;32.57;;;12.67;;
36377;SDS011;22402;42.746;23.606;2024-01-15T04:17:36;29.27;;;13.10;;
36377;SDS011;22402;42.746;23.606;2024-01-15T04:20:01;32.60;;;14.27;;
36377;SDS011;22402;42.746;23.606;2024-01-15T04:22:27;30.27;;;14.10;;
36377;SDS011;22402;42.746;23.606;2024-01-15T04:24:52;31.33;;;13.90;;
36377;SDS011;22402;42.746;23.606;2024-01-15T04:27:18;33.17;;;17.60;;
36377;SDS011;22402;42.746;23.606;2024-01-15T04:29:43;31.63;;;17.27;;
36377;SDS011;22402;42.746;23.606;2024-01-15T04:32:09;32.33;;;16.47;;
36377;SDS011;22402;42.746;23.606;2024-01-15T04:34:35;33.77;;;14.77;;
36377;SDS011;22402;42.746;23.606;2024-01-15T04:37:00;28.67;;;14.23;;
36377;SDS011;22402;42.746;23.606;2024-01-15T04:39:26;35.83;;;14.97;;
36377;SDS011;22402;42.746;23.606;2024-01-15T04:41:52;33.97;;;14.37;;
36377;SDS011;22402;42.746;23.606;2024-01-15T04:44:17;32.83;;;13.33;;
36377;SDS011;22402;42.746;23.606;2024-01-15T04:46:43;27.13;;;12.70;;
36377;SDS011;22402;42.746;23.606;2024-01-15T04:49:09;27.13;;;12.87;;
36377;SDS011;22402;42.746;23.606;2024-01-15T04:51:34;22.63;;;11.30;;
36377;SDS011;22402;42.746;23.606;2024-01-15T04:54:00;24.63;;;11.53;;
36377;SDS011;22402;42.746;23.606;2024-01-15T04:56:26;30.27;;;13.53;;
36377;SDS011;22402;42.746;23.606;2024-01-15T04:58:51;30.13;;;12.80;;
36377;SDS011;22402;42.746;23.606;2024-01-15T05:01:17;32.03;;;13.60;;
36377;SDS011;22402;42.746;23.606;2024-01-15T05:03:43;22.87;;;12.70;;
36377;SDS011;22402;42.746;23.606;2024-01-15T05:06:08;30.07;;;13.17;;
36377;SDS011;22402;42.746;23.606;2024-01-15T05:08:34;30.63;;;12.83;;
36377;SDS011;22402;42.746;23.606;2024-01-15T05:10:59;35.43;;;14.33;;
36377;SDS011;22402;42.746;23.606;2024-01-15T05:13:25;33.80;;;13.97;;
36377;SDS011;22402;42.746;23.606;2024-01-15T05:15:50;30.17;;;14.30;;
36377;SDS011;22402;42.746;23.606;2024-01-15T05:18:16;31.30;;;14.07;;
36377;SDS011;22402;42.746;23.606;2024-01-15T05:20:42;35.20;;;13.97;;
36377;SDS011;22402;42.746;23.606;2024-01-15T05:23:07;29.83;;;12.67;;
36377;SDS011;22402;42.746;23.606;2024-01-15T05:25:33;23.83;;;10.60;;
36377;SDS011;22402;42.746;23.606;2024-01-15T05:27:58;29.40;;;12.90;;
36377;SDS011;22402;42.746;23.606;2024-01-15T05:30:24;40.10;;;15.77;;
36377;SDS011;22402;42.746;23.606;2024-01-15T05:32:49;46.23;;;16.57;;
36377;SDS011;22402;42.746;23.606;2024-01-15T05:35:15;24.90;;;12.13;;
36377;SDS011;22402;42.746;23.606;2024-01-15T05:37:42;28.73;;;12.00;;
36377;SDS011;22402;42.746;23.606;2024-01-15T05:40:10;23.93;;;12.20;;
36377;SDS011;22402;42.746;23.606;2024-01-15T05:42:36;25.20;;;12.63;;
36377;SDS011;22402;42.746;23.606;2024-01-15T05:45:02;25.63;;;11.90;;
36377;SDS011;22402;42.746;23.606;2024-01-15T05:47:29;23.93;;;11.33;;
36377;SDS011;22402;42.746;23.606;2024-01-15T05:49:55;30.20;;;12.50;;
36377;SDS011;22402;42.746;23.606;2024-01-15T05:52:21;23.90;;;11.97;;
36377;SDS011;22402;42.746;23.606;2024-01-15T05:54:47;32.43;;;12.30;;
36377;SDS011;22402;42.746;23.606;2024-01-15T05:57:13;26.20;;;11.00;;
36377;SDS011;22402;42.746;23.606;2024-01-15T05:59:38;27.80;;;12.00;;
36377;SDS011;22402;42.746;23.606;2024-01-15T06:02:03;25.10;;;12.80;;
36377;SDS011;22402;42.746;23.606;2024-01-15T06:04:29;24.50;;;12.03;;
36377;SDS011;22402;42.746;23.606;2024-01-15T06:06:54;22.40;;;11.60;;
36377;SDS011;22402;42.746;23.606;2024-01-15T06:09:20;24.10;;;12.70;;
36377;SDS011;22402;42.746;23.606;2024-01-15T06:11:45;28.00;;;13.63;;
36377;SDS011;22402;42.746;23.606;2024-01-15T06:14:11;30.07;;;13.03;;
36377;SDS011;22402;42.746;23.606;2024-01-15T06:16:36;23.50;;;12.00;;
36377;SDS011;22402;42.746;23.606;2024-01-15T06:19:02;21.00;;;11.73;;
36377;SDS011;22402;42.746;23.606;2024-01-15T06:21:28;23.30;;;10.60;;
36377;SDS011;22402;42.746;23.606;2024-01-15T06:23:53;28.33;;;11.30;;
36377;SDS011;22402;42.746;23.606;2024-01-15T06:26:21;29.90;;;10.93;;
36377;SDS011;22402;42.746;23.606;2024-01-15T06:28:47;31.33;;;12.30;;
36377;SDS011;22402;42.746;23.606;2024-01-15T06:31:13;27.07;;;10.80;;
36377;SDS011;22402;42.746;23.606;2024-01-15T06:33:39;40.63;;;14.53;;
36377;SDS011;22402;42.746;23.606;2024-01-15T06:36:05;26.23;;;11.73;;
36377;SDS011;22402;42.746;23.606;2024-01-15T06:38:31;25.90;;;12.70;;
36377;SDS011;22402;42.746;23.606;2024-01-15T06:40:57;33.33;;;14.83;;
36377;SDS011;22402;42.746;23.606;2024-01-15T06:43:22;40.90;;;16.50;;
36377;SDS011;22402;42.746;23.606;2024-01-15T06:45:48;31.13;;;14.20;;
36377;SDS011;22402;42.746;23.606;2024-01-15T06:48:14;36.73;;;16.80;;
36377;SDS011;22402;42.746;23.606;2024-01-15T06:50:41;27.40;;;15.23;;
36377;SDS011;22402;42.746;23.606;2024-01-15T06:53:07;35.13;;;15.50;;
36377;SDS011;22402;42.746;23.606;2024-01-15T06:55:33;30.53;;;15.40;;
36377;SDS011;22402;42.746;23.606;2024-01-15T06:57:58;24.57;;;12.90;;
36377;SDS011;22402;42.746;23.606;2024-01-15T07:00:24;26.97;;;13.70;;
36377;SDS011;22402;42.746;23.606;2024-01-15T07:02:49;24.77;;;12.50;;
36377;SDS011;22402;42.746;23.606;2024-01-15T07:05:15;29.57;;;14.03;;
36377;SDS011;22402;42.746;23.606;2024-01-15T07:07:40;33.10;;;14.47;;
36377;SDS011;22402;42.746;23.606;2024-01-15T07:10:06;28.90;;;14.47;;
36377;SDS011;22402;42.746;23.606;2024-01-15T07:12:32;31.83;;;14.10;;
36377;SDS011;22402;42.746;23.606;2024-01-15T07:14:57;39.87;;;18.27;;
36377;SDS011;22402;42.746;23.606;2024-01-15T07:17:23;37.37;;;17.83;;
36377;SDS011;22402;42.746;23.606;2024-01-15T07:19:48;27.90;;;14.53;;
36377;SDS011;22402;42.746;23.606;2024-01-15T07:22:14;27.90;;;13.67;;
36377;SDS011;22402;42.746;23.606;2024-01-15T07:24:42;29.83;;;13.80;;
36377;SDS011;22402;42.746;23.606;2024-01-15T07:27:08;31.17;;;15.03;;
36377;SDS011;22402;42.746;23.606;2024-01-15T07:29:34;43.93;;;22.40;;
36377;SDS011;22402;42.746;23.606;2024-01-15T07:32:02;40.07;;;20.03;;
36377;SDS011;22402;42.746;23.606;2024-01-15T07:34:28;36.30;;;16.97;;
36377;SDS011;22402;42.746;23.606;2024-01-15T07:36:54;27.80;;;14.97;;
36377;SDS011;22402;42.746;23.606;2024-01-15T07:39:20;31.30;;;14.93;;
36377;SDS011;22402;42.746;23.606;2024-01-15T07:41:47;28.33;;;12.33;;
36377;SDS011;22402;42.746;23.606;2024-01-15T07:44:13;31.00;;;15.00;;
36377;SDS011;22402;42.746;23.606;2024-01-15T07:46:38;33.80;;;14.80;;
36377;SDS011;22402;42.746;23.606;2024-01-15T07:49:05;41.23;;;18.73;;
36377;SDS011;22402;42.746;23.606;2024-01-15T07:51:30;35.10;;;17.97;;
36377;SDS011;22402;42.746;23.606;2024-01-15T07:53:56;31.33;;;18.17;;
36377;SDS011;22402;42.746;23.606;2024-01-15T07:56:21;42.40;;;23.30;;
36377;SDS011;22402;42.746;23.606;2024-01-15T07:58:47;49.10;;;25.90;;
36377;SDS011;22402;42.746;23.606;2024-01-15T08:01:12;53.17;;;28.33;;
36377;SDS011;22402;42.746;23.606;2024-01-15T08:03:38;155.47;;;67.90;;
36377;SDS011;22402;42.746;23.606;2024-01-15T08:06:03;310.47;;;126.53;;
36377;SDS011;22402;42.746;23.606;2024-01-15T08:08:30;294.33;;;122.60;;
36377;SDS011;22402;42.746;23.606;2024-01-15T08:10:55;229.53;;;93.33;;
36377;SDS011;22402;42.746;23.606;2024-01-15T08:13:20;162.57;;;68.50;;
36377;SDS011;22402;42.746;23.606;2024-01-15T08:15:46;120.03;;;52.03;;
36377;SDS011;22402;42.746;23.606;2024-01-15T08:18:12;80.10;;;39.00;;
36377;SDS011;22402;42.746;23.606;2024-01-15T08:20:37;68.77;;;34.43;;
36377;SDS011;22402;42.746;23.606;2024-01-15T08:23:03;58.50;;;31.00;;
36377;SDS011;22402;42.746;23.606;2024-01-15T08:25:29;53.93;;;29.53;;
36377;SDS011;22402;42.746;23.606;2024-01-15T08:27:55;49.57;;;28.53;;
36377;SDS011;22402;42.746;23.606;2024-01-15T08:30:21;51.60;;;27.37;;
36377;SDS011;22402;42.746;23.606;2024-01-15T08:32:49;40.43;;;19.97;;
36377;SDS011;22402;42.746;23.606;2024-01-15T08:35:15;26.00;;;14.33;;
36377;SDS011;22402;42.746;23.606;2024-01-15T08:37:40;25.57;;;12.10;;
36377;SDS011;22402;42.746;23.606;2024-01-15T08:40:06;25.83;;;12.20;;
36377;SDS011;22402;42.746;23.606;2024-01-15T08:42:32;26.33;;;13.10;;
36377;SDS011;22402;42.746;23.606;2024-01-15T08:44:57;25.43;;;12.40;;
36377;SDS011;22402;42.746;23.606;2024-01-15T08:47:23;18.20;;;9.20;;
36377;SDS011;22402;42.746;23.606;2024-01-15T08:49:48;17.77;;;8.73;;
36377;SDS011;22402;42.746;23.606;2024-01-15T08:52:13;15.30;;;7.60;;
36377;SDS011;22402;42.746;23.606;2024-01-15T08:54:39;17.03;;;6.90;;
36377;SDS011;22402;42.746;23.606;2024-01-15T08:57:05;16.40;;;6.40;;
36377;SDS011;22402;42.746;23.606;2024-01-15T08:59:30;17.57;;;7.07;;
36377;SDS011;22402;42.746;23.606;2024-01-15T09:01:56;18.03;;;7.67;;
36377;SDS011;22402;42.746;23.606;2024-01-15T09:04:24;13.87;;;6.40;;
36377;SDS011;22402;42.746;23.606;2024-01-15T09:06:50;16.33;;;6.30;;
36377;SDS011;22402;42.746;23.606;2024-01-15T09:09:15;18.87;;;6.60;;
36377;SDS011;22402;42.746;23.606;2024-01-15T09:11:41;13.77;;;5.67;;
36377;SDS011;22402;42.746;23.606;2024-01-15T09:14:06;16.60;;;6.50;;
36377;SDS011;22402;42.746;23.606;2024-01-15T09:16:33;11.93;;;5.30;;
36377;SDS011;22402;42.746;23.606;2024-01-15T09:18:59;16.27;;;6.37;;
36377;SDS011;22402;42.746;23.606;2024-01-15T09:21:24;18.73;;;6.70;;
36377;SDS011;22402;42.746;23.606;2024-01-15T09:23:50;14.30;;;5.93;;
36377;SDS011;22402;42.746;23.606;2024-01-15T09:26:16;15.97;;;6.00;;
36377;SDS011;22402;42.746;23.606;2024-01-15T09:28:42;11.53;;;5.17;;
36377;SDS011;22402;42.746;23.606;2024-01-15T09:31:07;12.70;;;4.90;;
36377;SDS011;22402;42.746;23.606;2024-01-15T09:33:33;15.87;;;6.37;;
36377;SDS011;22402;42.746;23.606;2024-01-15T09:36:02;15.30;;;6.10;;
36377;SDS011;22402;42.746;23.606;2024-01-15T09:38:29;18.77;;;6.70;;
36377;SDS011;22402;42.746;23.606;2024-01-15T09:40:54;15.47;;;5.93;;
36377;SDS011;22402;42.746;23.606;2024-01-15T09:43:20;12.00;;;5.30;;
36377;SDS011;22402;42.746;23.606;2024-01-15T09:45:46;15.17;;;6.20;;
36377;SDS011;22402;42.746;23.606;2024-01-15T09:48:12;20.63;;;7.30;;
36377;SDS011;22402;42.746;23.606;2024-01-15T09:50:38;15.70;;;5.93;;
36377;SDS011;22402;42.746;23.606;2024-01-15T09:53:05;9.47;;;5.00;;
36377;SDS011;22402;42.746;23.606;2024-01-15T09:55:31;12.53;;;5.00;;
36377;SDS011;22402;42.746;23.606;2024-01-15T09:57:57;19.93;;;5.80;;
36377;SDS011;22402;42.746;23.606;2024-01-15T10:00:26;16.57;;;6.93;;
36377;SDS011;22402;42.746;23.606;2024-01-15T10:02:52;16.00;;;6.10;;
36377;SDS011;22402;42.746;23.606;2024-01-15T10:05:18;13.80;;;4.53;;
36377;SDS011;22402;42.746;23.606;2024-01-15T10:07:43;14.57;;;5.57;;
36377;SDS011;22402;42.746;23.606;2024-01-15T10:10:11;15.30;;;5.87;;
36377;SDS011;22402;42.746;23.606;2024-01-15T10:12:36;17.67;;;6.40;;
36377;SDS011;22402;42.746;23.606;2024-01-15T10:15:04;20.47;;;7.13;;
36377;SDS011;22402;42.746;23.606;2024-01-15T10:17:30;19.63;;;6.60;;
36377;SDS011;22402;42.746;23.606;2024-01-15T10:19:56;19.97;;;6.87;;
36377;SDS011;22402;42.746;23.606;2024-01-15T10:22:22;20.73;;;6.57;;
36377;SDS011;22402;42.746;23.606;2024-01-15T10:24:48;20.20;;;6.50;;
36377;SDS011;22402;42.746;23.606;2024-01-15T10:27:13;35.53;;;6.43;;
36377;SDS011;22402;42.746;23.606;2024-01-15T10:29:41;17.13;;;5.60;;
36377;SDS011;22402;42.746;23.606;2024-01-15T10:32:07;17.13;;;5.73;;
36377;SDS011;22402;42.746;23.606;2024-01-15T10:34:39;21.63;;;6.20;;
36377;SDS011;22402;42.746;23.606;2024-01-15T10:37:06;14.90;;;6.07;;
36377;SDS011;22402;42.746;23.606;2024-01-15T10:39:32;19.90;;;6.17;;
36377;SDS011;22402;42.746;23.606;2024-01-15T10:41:58;21.07;;;7.27;;
36377;SDS011;22402;42.746;23.606;2024-01-15T10:44:24;23.87;;;7.20;;
36377;SDS011;22402;42.746;23.606;2024-01-15T10:46:50;23.30;;;7.17;;
36377;SDS011;22402;42.746;23.606;2024-01-15T10:49:18;28.07;;;7.90;;
36377;SDS011;22402;42.746;23.606;2024-01-15T10:51:45;26.73;;;7.57;;
36377;SDS011;22402;42.746;23.606;2024-01-15T10:54:13;19.67;;;6.93;;
36377;SDS011;22402;42.746;23.606;2024-01-15T10:56:39;22.20;;;7.03;;
36377;SDS011;22402;42.746;23.606;2024-01-15T10:59:05;29.00;;;7.87;;
36377;SDS011;22402;42.746;23.606;2024-01-15T11:01:34;18.33;;;6.40;;
36377;SDS011;22402;42.746;23.606;2024-01-15T11:04:00;29.93;;;9.30;;
36377;SDS011;22402;42.746;23.606;2024-01-15T11:06:26;40.80;;;13.03;;
36377;SDS011;22402;42.746;23.606;2024-01-15T11:08:54;38.87;;;13.03;;
36377;SDS011;22402;42.746;23.606;2024-01-15T11:11:23;33.00;;;10.70;;
36377;SDS011;22402;42.746;23.606;2024-01-15T11:13:48;39.73;;;14.23;;
36377;SDS011;22402;42.746;23.606;2024-01-15T11:16:17;40.73;;;13.60;;
36377;SDS011;22402;42.746;23.606;2024-01-15T11:21:22;30.07;;;8.33;;
36377;SDS011;22402;42.746;23.606;2024-01-15T11:26:27;38.40;;;12.27;;
36377;SDS011;22402;42.746;23.606;2024-01-15T11:28:54;29.10;;;9.67;;
36377;SDS011;22402;42.746;23.606;2024-01-15T11:31:20;24.53;;;8.63;;
36377;SDS011;22402;42.746;23.606;2024-01-15T11:33:51;29.27;;;9.50;;
36377;SDS011;22402;42.746;23.606;2024-01-15T11:36:17;38.50;;;12.57;;
36377;SDS011;22402;42.746;23.606;2024-01-15T11:38:42;22.40;;;8.13;;
36377;SDS011;22402;42.746;23.606;2024-01-15T11:41:14;19.10;;;6.80;;
36377;SDS011;22402;42.746;23.606;2024-01-15T11:43:42;21.40;;;6.87;;
36377;SDS011;22402;42.746;23.606;2024-01-15T11:46:11;27.23;;;7.10;;
36377;SDS011;22402;42.746;23.606;2024-01-15T11:48:43;16.87;;;6.33;;
36377;SDS011;22402;42.746;23.606;2024-01-15T11:51:10;19.47;;;5.80;;
36377;SDS011;22402;42.746;23.606;2024-01-15T11:53:40;21.97;;;6.80;;
36377;SDS011;22402;42.746;23.606;2024-01-15T11:56:16;17.43;;;6.00;;
36377;SDS011;22402;42.746;23.606;2024-01-15T11:58:42;14.47;;;5.30;;
36377;SDS011;22402;42.746;23.606;2024-01-15T12:01:08;21.43;;;6.33;;
36377;SDS011;22402;42.746;23.606;2024-01-15T12:03:35;33.37;;;7.20;;
36377;SDS011;22402;42.746;23.606;2024-01-15T12:06:01;21.83;;;6.83;;
36377;SDS011;22402;42.746;23.606;2024-01-15T12:08:27;33.97;;;9.90;;
36377;SDS011;22402;42.746;23.606;2024-01-15T12:10:52;18.70;;;6.10;;
36377;SDS011;22402;42.746;23.606;2024-01-15T12:13:18;27.00;;;8.43;;
36377;SDS011;22402;42.746;23.606;2024-01-15T12:15:45;23.47;;;7.10;;
36377;SDS011;22402;42.746;23.606;2024-01-15T12:18:13;22.17;;;6.90;;
36377;SDS011;22402;42.746;23.606;2024-01-15T12:20:41;19.57;;;6.57;;
36377;SDS011;22402;42.746;23.606;2024-01-15T12:23:07;24.40;;;7.50;;
36377;SDS011;22402;42.746;23.606;2024-01-15T12:25:33;21.13;;;6.30;;
36377;SDS011;22402;42.746;23.606;2024-01-15T12:28:04;34.87;;;8.77;;
36377;SDS011;22402;42.746;23.606;2024-01-15T12:30:30;24.13;;;8.30;;
36377;SDS011;22402;42.746;23.606;2024-01-15T12:32:57;25.87;;;8.00;;
36377;SDS011;22402;42.746;23.606;2024-01-15T12:35:23;17.53;;;6.87;;
36377;SDS011;22402;42.746;23.606;2024-01-15T12:37:51;22.20;;;6.90;;
36377;SDS011;22402;42.746;23.606;2024-01-15T12:40:19;23.53;;;8.77;;
36377;SDS011;22402;42.746;23.606;2024-01-15T12:42:45;28.57;;;10.87;;
36377;SDS011;22402;42.746;23.606;2024-01-15T12:45:11;31.80;;;14.23;;
36377;SDS011;22402;42.746;23.606;2024-01-15T12:47:38;40.33;;;16.83;;
36377;SDS011;22402;42.746;23.606;2024-01-15T12:50:07;36.97;;;16.70;;
36377;SDS011;22402;42.746;23.606;2024-01-15T12:52:34;36.43;;;17.37;;
36377;SDS011;22402;42.746;23.606;2024-01-15T12:54:59;37.00;;;16.97;;
36377;SDS011;22402;42.746;23.606;2024-01-15T12:57:25;36.83;;;18.97;;
36377;SDS011;22402;42.746;23.606;2024-01-15T12:59:51;38.30;;;19.40;;
36377;SDS011;22402;42.746;23.606;2024-01-15T13:02:18;42.57;;;19.83;;
36377;SDS011;22402;42.746;23.606;2024-01-15T13:04:43;37.57;;;17.43;;
36377;SDS011;22402;42.746;23.606;2024-01-15T13:07:09;43.20;;;19.60;;
36377;SDS011;22402;42.746;23.606;2024-01-15T13:09:34;42.60;;;19.70;;
36377;SDS011;22402;42.746;23.606;2024-01-15T13:12:03;39.80;;;17.93;;
36377;SDS011;22402;42.746;23.606;2024-01-15T13:14:29;35.47;;;17.10;;
36377;SDS011;22402;42.746;23.606;2024-01-15T13:16:54;38.03;;;18.10;;
36377;SDS011;22402;42.746;23.606;2024-01-15T13:19:21;37.73;;;15.63;;
36377;SDS011;22402;42.746;23.606;2024-01-15T13:21:47;49.27;;;18.30;;
36377;SDS011;22402;42.746;23.606;2024-01-15T13:24:13;38.53;;;15.50;;
36377;SDS011;22402;42.746;23.606;2024-01-15T13:26:39;39.73;;;14.60;;
36377;SDS011;22402;42.746;23.606;2024-01-15T13:29:05;31.90;;;14.13;;
36377;SDS011;22402;42.746;23.606;2024-01-15T13:31:31;28.37;;;11.97;;
36377;SDS011;22402;42.746;23.606;2024-01-15T13:33:58;36.00;;;13.60;;
36377;SDS011;22402;42.746;23.606;2024-01-15T13:36:24;26.13;;;11.10;;
36377;SDS011;22402;42.746;23.606;2024-01-15T13:38:53;18.93;;;7.80;;
36377;SDS011;22402;42.746;23.606;2024-01-15T13:41:19;21.67;;;8.70;;
36377;SDS011;22402;42.746;23.606;2024-01-15T13:43:52;25.50;;;9.33;;
36377;SDS011;22402;42.746;23.606;2024-01-15T13:46:18;27.50;;;9.03;;
36377;SDS011;22402;42.746;23.606;2024-01-15T13:48:44;25.40;;;9.13;;
36377;SDS011;22402;42.746;23.606;2024-01-15T13:51:10;25.57;;;9.67;;
36377;SDS011;22402;42.746;23.606;2024-01-15T13:53:38;24.03;;;9.03;;
36377;SDS011;22402;42.746;23.606;2024-01-15T13:56:05;23.87;;;8.33;;
36377;SDS011;22402;42.746;23.606;2024-01-15T13:58:31;32.03;;;13.10;;
36377;SDS011;22402;42.746;23.606;2024-01-15T14:01:00;41.70;;;17.87;;
36377;SDS011;22402;42.746;23.606;2024-01-15T14:03:26;49.37;;;22.27;;
36377;SDS011;22402;42.746;23.606;2024-01-15T14:05:52;44.47;;;20.07;;
36377;SDS011;22402;42.746;23.606;2024-01-15T14:08:17;27.97;;;13.00;;
36377;SDS011;22402;42.746;23.606;2024-01-15T14:10:43;57.83;;;25.83;;
36377;SDS011;22402;42.746;23.606;2024-01-15T14:13:08;64.93;;;30.47;;